Time;durP1;ratioP1;P1;durP2;ratioP2;P2;SDS_P1;SDS_P2;PMS_P1;PMS_P2;Temp;Humidity;BMP_temperature;BMP_pressure;BME280_temperature;BME280_humidity;BME280_pressure;Samples;Min_cycle;Max_cycle;Signal;HPM_P1;HPM_P2
2022/06/15 00:00:20;;;;;;;5.85;5.30;;;;;;;;;;5063892;28;24987;-45
2022/06/15 00:02:45;;;;;;;6.07;5.57;;;;;;;;;;5065767;28;24434;-45
2022/06/15 00:05:10;;;;;;;5.72;5.30;;;;;;;;;;5056160;28;24976;-46
2022/06/15 00:07:35;;;;;;;6.32;5.70;;;;;;;;;;5070681;28;24499;-46
2022/06/15 00:10:00;;;;;;;6.30;5.70;;;;;;;;;;5071354;28;24410;-46
2022/06/15 00:12:25;;;;;;;5.83;5.33;;;;;;;;;;5062859;28;25003;-47
2022/06/15 00:14:50;;;;;;;5.82;5.43;;;;;;;;;;5066673;28;24561;-46
2022/06/15 00:17:16;;;;;;;5.70;5.20;;;;;;;;;;5059707;28;24492;-47
2022/06/15 00:19:41;;;;;;;5.80;5.40;;;;;;;;;;5071585;28;24499;-47
2022/06/15 00:22:06;;;;;;;6.00;5.60;;;;;;;;;;5066743;28;25231;-47
2022/06/15 00:24:31;;;;;;;5.60;5.10;;;;;;;;;;5062542;28;24417;-47
2022/06/15 00:26:56;;;;;;;6.00;5.45;;;;;;;;;;5068923;28;24809;-47
2022/06/15 00:29:21;;;;;;;5.90;5.40;;;;;;;;;;5068402;28;25101;-46
2022/06/15 00:31:47;;;;;;;5.87;5.40;;;;;;;;;;5070047;28;24423;-46
2022/06/15 00:34:12;;;;;;;5.97;5.47;;;;;;;;;;5064835;28;24410;-48
2022/06/15 00:36:37;;;;;;;6.23;5.73;;;;;;;;;;5064678;28;24444;-46
2022/06/15 00:39:03;;;;;;;5.53;5.20;;;;;;;;;;5064763;28;24637;-47
2022/06/15 00:41:33;;;;;;;5.78;5.38;;;;;;;;;;5065172;28;24551;-46
2022/06/15 00:44:18;;;;;;;5.70;5.30;;;;;;;;;;5062917;28;25070;-46
2022/06/15 00:46:45;;;;;;;5.70;5.30;;;;;;;;;;5047220;28;25003;-47
2022/06/15 00:49:13;;;;;;;5.90;5.40;;;;;;;;;;5064914;28;24520;-47
2022/06/15 00:51:39;;;;;;;5.97;5.57;;;;;;;;;;5063449;28;24507;-47
2022/06/15 00:54:04;;;;;;;6.00;5.60;;;;;;;;;;5063218;28;24765;-47
2022/06/15 00:56:30;;;;;;;5.90;5.50;;;;;;;;;;5053063;28;24518;-47
2022/06/15 00:58:57;;;;;;;5.95;5.50;;;;;;;;;;5058368;28;24450;-46
2022/06/15 01:01:23;;;;;;;6.00;5.50;;;;;;;;;;5062194;28;24502;-47
2022/06/15 01:03:49;;;;;;;6.07;5.67;;;;;;;;;;5068282;28;24534;-46
2022/06/15 01:06:27;;;;;;;6.45;5.85;;;;;;;;;;5064407;28;24963;-47
2022/06/15 01:09:11;;;;;;;6.33;5.83;;;;;;;;;;5060145;28;25050;-47
2022/06/15 01:11:42;;;;;;;7.13;6.53;;;;;;;;;;5058508;28;24782;-46
2022/06/15 01:14:22;;;;;;;6.70;6.18;;;;;;;;;;5060428;28;24427;-47
2022/06/15 01:16:47;;;;;;;7.00;6.40;;;;;;;;;;5066313;28;24438;-48
2022/06/15 01:19:16;;;;;;;6.60;6.10;;;;;;;;;;5057863;28;24434;-46
2022/06/15 01:21:49;;;;;;;6.22;5.72;;;;;;;;;;5059948;28;24576;-46
2022/06/15 01:24:17;;;;;;;6.20;5.80;;;;;;;;;;5060617;28;24423;-46
2022/06/15 01:26:48;;;;;;;6.35;5.85;;;;;;;;;;5063233;28;25174;-46
2022/06/15 01:29:23;;;;;;;6.05;5.65;;;;;;;;;;5064356;28;24960;-46
2022/06/15 01:32:09;;;;;;;5.97;5.57;;;;;;;;;;5067674;28;24442;-46
2022/06/15 01:34:49;;;;;;;5.95;5.55;;;;;;;;;;5065110;28;24418;-46
2022/06/15 01:37:24;;;;;;;5.82;5.43;;;;;;;;;;5053857;28;24442;-46
2022/06/15 01:39:49;;;;;;;6.20;5.70;;;;;;;;;;5060666;28;24789;-46
2022/06/15 01:42:17;;;;;;;5.70;5.40;;;;;;;;;;5064436;28;24816;-46
2022/06/15 01:44:46;;;;;;;5.40;5.10;;;;;;;;;;5058388;28;24447;-46
2022/06/15 01:47:14;;;;;;;6.33;5.83;;;;;;;;;;5060793;28;24410;-46
2022/06/15 01:49:54;;;;;;;5.20;4.90;;;;;;;;;;5057517;28;24521;-47
2022/06/15 01:52:21;;;;;;;5.93;5.53;;;;;;;;;;5066625;28;24492;-47
2022/06/15 01:54:49;;;;;;;6.00;5.60;;;;;;;;;;5059000;28;24530;-48
2022/06/15 01:57:14;;;;;;;5.50;5.13;;;;;;;;;;5067010;28;24472;-47
2022/06/15 01:59:42;;;;;;;6.35;5.85;;;;;;;;;;5061901;28;24427;-47
2022/06/15 02:02:18;;;;;;;6.00;5.60;;;;;;;;;;5063228;28;24969;-48
2022/06/15 02:04:50;;;;;;;6.30;5.80;;;;;;;;;;5049833;28;24426;-47
2022/06/15 02:07:21;;;;;;;5.70;5.30;;;;;;;;;;5059216;28;25022;-48
2022/06/15 02:09:49;;;;;;;5.60;5.22;;;;;;;;;;5070038;28;25033;-47
2022/06/15 02:12:18;;;;;;;5.97;5.60;;;;;;;;;;5060296;28;26255;-48
2022/06/15 02:14:49;;;;;;;5.97;5.60;;;;;;;;;;5070655;28;24506;-46
2022/06/15 02:17:17;;;;;;;6.38;5.93;;;;;;;;;;5060217;28;24418;-48
2022/06/15 02:19:44;;;;;;;5.85;5.45;;;;;;;;;;5048407;28;24979;-47
2022/06/15 02:22:11;;;;;;;5.88;5.47;;;;;;;;;;5058252;28;24519;-46
2022/06/15 02:24:37;;;;;;;6.15;5.75;;;;;;;;;;5061489;28;24999;-46
2022/06/15 02:27:03;;;;;;;7.13;6.60;;;;;;;;;;5057310;28;24435;-47
2022/06/15 02:29:28;;;;;;;6.30;5.90;;;;;;;;;;5059592;28;24422;-46
2022/06/15 02:31:55;;;;;;;6.20;5.70;;;;;;;;;;5060582;28;24793;-46
2022/06/15 02:34:20;;;;;;;5.70;5.30;;;;;;;;;;5045857;28;24940;-47
2022/06/15 02:36:45;;;;;;;5.90;5.50;;;;;;;;;;5060976;28;24969;-47
2022/06/15 02:39:10;;;;;;;5.53;5.13;;;;;;;;;;5055193;28;24850;-47
2022/06/15 02:41:36;;;;;;;5.90;5.50;;;;;;;;;;5057688;28;24480;-47
2022/06/15 02:44:02;;;;;;;6.20;5.80;;;;;;;;;;5058547;28;24449;-48
2022/06/15 02:46:31;;;;;;;6.10;5.70;;;;;;;;;;5055862;28;24520;-47
2022/06/15 02:48:56;;;;;;;6.40;6.00;;;;;;;;;;5063666;28;24536;-47
2022/06/15 02:51:33;;;;;;;5.90;5.50;;;;;;;;;;5069321;28;24505;-47
2022/06/15 02:54:02;;;;;;;6.30;5.90;;;;;;;;;;5071790;28;24511;-47
2022/06/15 02:56:27;;;;;;;6.00;5.50;;;;;;;;;;5060876;28;24418;-47
2022/06/15 02:58:53;;;;;;;6.30;5.90;;;;;;;;;;5065591;28;24882;-47
2022/06/15 03:01:19;;;;;;;5.90;5.57;;;;;;;;;;5072180;28;24418;-47
2022/06/15 03:03:44;;;;;;;6.53;6.03;;;;;;;;;;5068429;28;24419;-47
2022/06/15 03:06:14;;;;;;;5.90;5.50;;;;;;;;;;5064471;28;24437;-47
2022/06/15 03:08:40;;;;;;;6.05;5.65;;;;;;;;;;5056021;28;24457;-47
2022/06/15 03:11:05;;;;;;;5.97;5.57;;;;;;;;;;5063664;28;24455;-47
2022/06/15 03:13:30;;;;;;;6.23;5.83;;;;;;;;;;5066423;28;25196;-47
2022/06/15 03:15:56;;;;;;;6.20;5.70;;;;;;;;;;5063352;28;24438;-47
2022/06/15 03:18:22;;;;;;;7.07;6.57;;;;;;;;;;5062430;28;24426;-47
2022/06/15 03:20:47;;;;;;;5.97;5.57;;;;;;;;;;5052414;28;24430;-47
2022/06/15 03:23:13;;;;;;;5.70;5.30;;;;;;;;;;5054846;28;24438;-47
2022/06/15 03:25:38;;;;;;;6.13;5.73;;;;;;;;;;5073144;28;24453;-47
2022/06/15 03:28:04;;;;;;;6.00;5.50;;;;;;;;;;5072199;28;25037;-49
2022/06/15 03:30:30;;;;;;;5.90;5.50;;;;;;;;;;5072306;28;24432;-47
2022/06/15 03:32:55;;;;;;;5.78;5.28;;;;;;;;;;5072637;28;24472;-45
2022/06/15 03:35:20;;;;;;;5.50;5.10;;;;;;;;;;5064390;28;25010;-46
2022/06/15 03:37:45;;;;;;;6.03;5.53;;;;;;;;;;5062767;28;24467;-45
2022/06/15 03:40:11;;;;;;;5.60;5.20;;;;;;;;;;5067660;28;24526;-46
2022/06/15 03:42:36;;;;;;;5.20;4.90;;;;;;;;;;5079329;28;24460;-46
2022/06/15 03:45:01;;;;;;;5.53;5.13;;;;;;;;;;5070959;28;24549;-46
2022/06/15 03:47:27;;;;;;;5.60;5.20;;;;;;;;;;5079382;28;24505;-46
2022/06/15 03:49:53;;;;;;;5.20;4.80;;;;;;;;;;5077450;28;24456;-46
2022/06/15 03:52:19;;;;;;;5.75;5.00;;;;;;;;;;5067590;28;24496;-46
2022/06/15 03:54:45;;;;;;;5.47;5.07;;;;;;;;;;5075333;28;25451;-47
2022/06/15 03:57:14;;;;;;;5.10;4.70;;;;;;;;;;5067597;28;24421;-48
2022/06/15 03:59:40;;;;;;;5.60;5.10;;;;;;;;;;5064650;28;25060;-47
2022/06/15 04:02:05;;;;;;;5.20;4.90;;;;;;;;;;5062514;28;25007;-47
2022/06/15 04:04:30;;;;;;;5.30;4.90;;;;;;;;;;5065427;28;24513;-47
2022/06/15 04:06:56;;;;;;;5.60;5.10;;;;;;;;;;5076189;28;24779;-47
2022/06/15 04:09:22;;;;;;;5.90;5.40;;;;;;;;;;5064626;28;25241;-47
2022/06/15 04:12:08;;;;;;;5.95;5.35;;;;;;;;;;5063847;28;24531;-47
2022/06/15 04:14:33;;;;;;;5.20;4.80;;;;;;;;;;5066817;28;24539;-47
2022/06/15 04:16:58;;;;;;;4.65;4.35;;;;;;;;;;5072024;28;24978;-47
2022/06/15 04:19:25;;;;;;;4.80;4.40;;;;;;;;;;5068094;28;24799;-47
2022/06/15 04:21:51;;;;;;;5.20;4.70;;;;;;;;;;5057798;28;25047;-46
2022/06/15 04:24:17;;;;;;;4.93;4.53;;;;;;;;;;5055384;28;24989;-46
2022/06/15 04:26:43;;;;;;;4.80;4.50;;;;;;;;;;5058306;28;24479;-47
2022/06/15 04:29:08;;;;;;;4.70;4.30;;;;;;;;;;5058435;28;24968;-47
2022/06/15 04:31:33;;;;;;;4.20;3.90;;;;;;;;;;5056457;28;24450;-47
2022/06/15 04:33:59;;;;;;;4.30;3.88;;;;;;;;;;5074600;28;24525;-47
2022/06/15 04:36:26;;;;;;;4.67;4.20;;;;;;;;;;5071006;28;24418;-46
2022/06/15 04:38:51;;;;;;;4.78;4.38;;;;;;;;;;5063093;28;24438;-46
2022/06/15 04:41:16;;;;;;;4.63;4.30;;;;;;;;;;5062805;28;24430;-48
2022/06/15 04:43:41;;;;;;;3.97;3.67;;;;;;;;;;5063439;28;24434;-47
2022/06/15 04:46:06;;;;;;;4.82;3.95;;;;;;;;;;5071093;28;24519;-47
2022/06/15 04:48:31;;;;;;;4.00;3.70;;;;;;;;;;5067330;28;24422;-47
2022/06/15 04:50:57;;;;;;;3.90;3.57;;;;;;;;;;5071661;28;25015;-47
2022/06/15 04:53:22;;;;;;;3.90;3.60;;;;;;;;;;5062643;28;24449;-46
2022/06/15 04:55:47;;;;;;;4.23;3.93;;;;;;;;;;5064843;28;24514;-48
2022/06/15 04:58:12;;;;;;;5.10;4.40;;;;;;;;;;5065003;28;24472;-47
2022/06/15 05:00:40;;;;;;;4.10;3.70;;;;;;;;;;5069877;28;24421;-46
2022/06/15 05:03:06;;;;;;;3.85;3.45;;;;;;;;;;5055095;28;24419;-46
2022/06/15 05:05:31;;;;;;;4.00;3.60;;;;;;;;;;5072975;28;24425;-46
2022/06/15 05:07:56;;;;;;;4.50;3.30;;;;;;;;;;5069272;28;24437;-47
2022/06/15 05:10:23;;;;;;;3.70;3.40;;;;;;;;;;5078188;28;24505;-46
2022/06/15 05:12:48;;;;;;;3.45;3.15;;;;;;;;;;5076915;28;24423;-47
2022/06/15 05:15:14;;;;;;;3.50;3.20;;;;;;;;;;5062225;28;24445;-47
2022/06/15 05:17:40;;;;;;;3.30;3.00;;;;;;;;;;5055190;28;24472;-46
2022/06/15 05:20:06;;;;;;;3.42;2.80;;;;;;;;;;5049904;28;24418;-46
2022/06/15 05:22:31;;;;;;;3.00;2.70;;;;;;;;;;5062164;28;24433;-46
2022/06/15 05:24:57;;;;;;;4.00;2.70;;;;;;;;;;5053063;28;24421;-48
2022/06/15 05:27:22;;;;;;;3.97;2.80;;;;;;;;;;5042871;28;24431;-48
2022/06/15 05:29:47;;;;;;;4.07;3.03;;;;;;;;;;5043590;28;24511;-49
2022/06/15 05:32:12;;;;;;;3.10;2.80;;;;;;;;;;5042052;28;24399;-48
2022/06/15 05:34:37;;;;;;;3.00;2.70;;;;;;;;;;5047147;28;24714;-48
2022/06/15 05:37:02;;;;;;;2.95;2.75;;;;;;;;;;5058519;28;25391;-47
2022/06/15 05:39:28;;;;;;;3.37;2.90;;;;;;;;;;5061764;28;24481;-47
2022/06/15 05:41:53;;;;;;;3.17;2.87;;;;;;;;;;5063635;28;24444;-48
2022/06/15 05:44:28;;;;;;;3.08;2.75;;;;;;;;;;5060521;28;24454;-48
2022/06/15 05:46:55;;;;;;;2.80;2.50;;;;;;;;;;5063348;28;24406;-48
2022/06/15 05:49:20;;;;;;;3.20;2.60;;;;;;;;;;5058271;28;24936;-48
2022/06/15 05:51:45;;;;;;;2.72;2.53;;;;;;;;;;5058042;28;24402;-49
2022/06/15 05:54:11;;;;;;;3.30;2.67;;;;;;;;;;5063230;28;25279;-48
2022/06/15 05:56:36;;;;;;;3.55;3.10;;;;;;;;;;5062513;28;24440;-49
2022/06/15 05:59:01;;;;;;;4.05;2.50;;;;;;;;;;5061454;28;24411;-48
2022/06/15 06:01:28;;;;;;;2.50;2.30;;;;;;;;;;5061221;28;25017;-48
2022/06/15 06:03:53;;;;;;;3.85;2.55;;;;;;;;;;5060257;28;24516;-48
2022/06/15 06:06:19;;;;;;;4.77;2.67;;;;;;;;;;5062472;28;24512;-47
2022/06/15 06:08:44;;;;;;;3.40;2.80;;;;;;;;;;5069156;28;24422;-46
2022/06/15 06:11:09;;;;;;;3.20;2.97;;;;;;;;;;5058025;28;24496;-48
2022/06/15 06:13:34;;;;;;;2.50;2.30;;;;;;;;;;5070398;28;24789;-47
2022/06/15 06:15:59;;;;;;;5.13;2.40;;;;;;;;;;5064911;28;24441;-47
2022/06/15 06:18:25;;;;;;;2.35;2.20;;;;;;;;;;5073640;28;25127;-47
2022/06/15 06:20:50;;;;;;;2.37;2.17;;;;;;;;;;5072790;28;24514;-47
2022/06/15 06:23:15;;;;;;;2.40;2.20;;;;;;;;;;5057062;28;24487;-48
2022/06/15 06:25:44;;;;;;;3.43;2.80;;;;;;;;;;5076776;28;24415;-46
2022/06/15 06:28:21;;;;;;;2.70;2.50;;;;;;;;;;5041301;28;24475;-47
2022/06/15 06:30:46;;;;;;;2.50;2.30;;;;;;;;;;5061707;28;25018;-47
2022/06/15 06:33:11;;;;;;;3.20;2.60;;;;;;;;;;5054997;28;24519;-47
2022/06/15 06:35:36;;;;;;;2.58;2.40;;;;;;;;;;5053472;28;24414;-47
2022/06/15 06:38:01;;;;;;;4.10;2.65;;;;;;;;;;5061738;28;24434;-47
2022/06/15 06:40:26;;;;;;;4.50;2.60;;;;;;;;;;5077961;28;24450;-47
2022/06/15 06:42:52;;;;;;;2.40;2.20;;;;;;;;;;5070283;28;24473;-48
2022/06/15 06:45:17;;;;;;;2.67;2.30;;;;;;;;;;5065430;28;24434;-47
2022/06/15 06:47:44;;;;;;;3.13;2.40;;;;;;;;;;5066495;28;24418;-47
2022/06/15 06:50:09;;;;;;;3.47;2.30;;;;;;;;;;5079375;28;24396;-47
2022/06/15 06:52:34;;;;;;;2.90;2.70;;;;;;;;;;5078475;28;24785;-47
2022/06/15 06:54:59;;;;;;;4.03;2.20;;;;;;;;;;5061794;28;24391;-47
2022/06/15 06:57:25;;;;;;;2.45;2.25;;;;;;;;;;5059022;28;24501;-47
2022/06/15 06:59:50;;;;;;;2.65;2.20;;;;;;;;;;5061190;28;24753;-47
2022/06/15 07:02:15;;;;;;;3.80;2.90;;;;;;;;;;5061415;28;24454;-47
2022/06/15 07:04:40;;;;;;;3.05;2.30;;;;;;;;;;5066879;28;24391;-47
2022/06/15 07:07:05;;;;;;;2.50;2.30;;;;;;;;;;5063146;28;24797;-47
2022/06/15 07:09:30;;;;;;;3.60;2.63;;;;;;;;;;5061674;28;24444;-46
2022/06/15 07:11:56;;;;;;;2.90;2.20;;;;;;;;;;5062786;28;24938;-46
2022/06/15 07:14:21;;;;;;;2.60;2.40;;;;;;;;;;5064551;28;24395;-46
2022/06/15 07:16:46;;;;;;;2.60;2.40;;;;;;;;;;5065356;28;24483;-46
2022/06/15 07:19:11;;;;;;;2.80;2.35;;;;;;;;;;5064663;28;24395;-46
2022/06/15 07:21:37;;;;;;;3.05;2.50;;;;;;;;;;5066545;28;24498;-46
2022/06/15 07:24:02;;;;;;;2.40;2.20;;;;;;;;;;5066280;28;24435;-46
2022/06/15 07:26:41;;;;;;;2.80;2.40;;;;;;;;;;5060294;28;24425;-46
2022/06/15 07:29:07;;;;;;;2.90;2.40;;;;;;;;;;5064357;28;24379;-46
2022/06/15 07:31:34;;;;;;;2.80;2.60;;;;;;;;;;5066422;28;24947;-46
2022/06/15 07:33:59;;;;;;;3.20;2.50;;;;;;;;;;5062452;28;24460;-46
2022/06/15 07:36:25;;;;;;;2.90;2.30;;;;;;;;;;5061632;28;24426;-47
2022/06/15 07:38:53;;;;;;;2.40;2.20;;;;;;;;;;5066097;28;24426;-46
2022/06/15 07:41:19;;;;;;;2.97;2.17;;;;;;;;;;5064208;28;24403;-46
2022/06/15 07:43:45;;;;;;;3.03;2.50;;;;;;;;;;5062024;28;24492;-47
2022/06/15 07:46:10;;;;;;;2.50;2.30;;;;;;;;;;5060419;28;24430;-46
2022/06/15 07:51:28;;;;;;;2.60;2.20;;;;;;;;;;5063742;28;24486;-46
2022/06/15 07:53:53;;;;;;;2.42;2.22;;;;;;;;;;5063767;28;24402;-46
2022/06/15 07:56:19;;;;;;;2.43;2.23;;;;;;;;;;5060052;28;24399;-46
2022/06/15 07:58:44;;;;;;;2.77;2.20;;;;;;;;;;5064045;28;24423;-46
2022/06/15 08:01:09;;;;;;;2.90;2.50;;;;;;;;;;5063665;28;24769;-46
2022/06/15 08:03:35;;;;;;;2.42;2.22;;;;;;;;;;5065612;28;24509;-46
2022/06/15 08:06:00;;;;;;;3.13;2.60;;;;;;;;;;5062171;28;24415;-45
2022/06/15 08:08:26;;;;;;;3.10;2.80;;;;;;;;;;5059010;28;24457;-46
2022/06/15 08:10:51;;;;;;;3.20;2.50;;;;;;;;;;5060572;28;25346;-46
2022/06/15 08:13:17;;;;;;;3.60;2.70;;;;;;;;;;5065424;28;25132;-46
2022/06/15 08:15:43;;;;;;;2.30;2.10;;;;;;;;;;5065657;28;24375;-46
2022/06/15 08:18:10;;;;;;;2.95;2.40;;;;;;;;;;5064582;28;24514;-47
2022/06/15 08:20:37;;;;;;;3.15;2.30;;;;;;;;;;5059952;28;25122;-47
2022/06/15 08:23:08;;;;;;;3.45;2.30;;;;;;;;;;5060654;28;24504;-46
2022/06/15 08:25:36;;;;;;;2.65;2.42;;;;;;;;;;5065066;28;25027;-45
2022/06/15 08:28:02;;;;;;;2.70;2.50;;;;;;;;;;5064882;28;24482;-47
2022/06/15 08:30:27;;;;;;;2.65;2.45;;;;;;;;;;5063052;28;24705;-46
2022/06/15 08:32:52;;;;;;;2.40;2.30;;;;;;;;;;5059016;28;24867;-46
2022/06/15 08:35:18;;;;;;;3.30;2.50;;;;;;;;;;5062804;28;24832;-47
2022/06/15 08:37:43;;;;;;;3.08;2.35;;;;;;;;;;5064636;28;24618;-46
2022/06/15 08:40:09;;;;;;;2.50;2.30;;;;;;;;;;5062757;28;25305;-46
2022/06/15 08:42:45;;;;;;;3.00;2.40;;;;;;;;;;5061052;28;24429;-47
2022/06/15 08:45:11;;;;;;;3.50;2.50;;;;;;;;;;5060760;28;24423;-46
2022/06/15 08:47:49;;;;;;;2.42;2.22;;;;;;;;;;5064492;28;24397;-47
2022/06/15 08:50:20;;;;;;;2.60;2.33;;;;;;;;;;5062558;28;24389;-47
2022/06/15 08:52:51;;;;;;;2.53;2.20;;;;;;;;;;5064237;28;24494;-48
2022/06/15 08:55:22;;;;;;;3.00;2.70;;;;;;;;;;5058916;28;24429;-47
2022/06/15 08:57:58;;;;;;;2.50;2.22;;;;;;;;;;5062372;28;24391;-47
2022/06/15 09:00:25;;;;;;;2.70;2.40;;;;;;;;;;5064139;28;24399;-48
2022/06/15 09:02:56;;;;;;;2.60;2.42;;;;;;;;;;5063853;28;24422;-46
2022/06/15 09:05:31;;;;;;;3.30;2.80;;;;;;;;;;5058657;28;25109;-46
2022/06/15 09:08:11;;;;;;;3.17;2.37;;;;;;;;;;5058718;28;24414;-46
2022/06/15 09:10:44;;;;;;;2.10;2.00;;;;;;;;;;5063834;28;24800;-47
2022/06/15 09:13:29;;;;;;;2.95;2.00;;;;;;;;;;5063523;28;24440;-47
2022/06/15 09:16:03;;;;;;;2.03;1.90;;;;;;;;;;5062285;28;24415;-46
2022/06/15 09:18:40;;;;;;;3.50;2.47;;;;;;;;;;5057438;28;24479;-47
2022/06/15 09:21:14;;;;;;;2.40;2.20;;;;;;;;;;5062309;28;24964;-47
2022/06/15 09:23:39;;;;;;;2.28;2.17;;;;;;;;;;5063367;28;24521;-46
2022/06/15 09:26:23;;;;;;;2.83;2.10;;;;;;;;;;5060623;28;24487;-46
2022/06/15 09:28:51;;;;;;;2.90;2.60;;;;;;;;;;5056959;28;24451;-46
2022/06/15 09:31:29;;;;;;;2.20;2.10;;;;;;;;;;5059915;28;24395;-48
2022/06/15 09:33:57;;;;;;;2.92;2.40;;;;;;;;;;5063896;28;24433;-46
2022/06/15 09:36:25;;;;;;;2.25;2.15;;;;;;;;;;5062085;28;24489;-46
2022/06/15 09:38:50;;;;;;;2.47;2.15;;;;;;;;;;5062041;28;25026;-46
2022/06/15 09:41:19;;;;;;;2.00;1.90;;;;;;;;;;5058288;28;24507;-46
2022/06/15 09:43:45;;;;;;;3.25;2.42;;;;;;;;;;5058329;28;24498;-47
2022/06/15 09:46:15;;;;;;;3.50;2.77;;;;;;;;;;5062089;28;25028;-47
2022/06/15 09:48:46;;;;;;;3.22;2.50;;;;;;;;;;5062016;28;24423;-46
2022/06/15 09:51:28;;;;;;;2.30;2.20;;;;;;;;;;5061688;28;24411;-45
2022/06/15 09:54:00;;;;;;;3.03;2.65;;;;;;;;;;5061935;28;24398;-46
2022/06/15 09:56:25;;;;;;;2.90;2.17;;;;;;;;;;5058107;28;24460;-45
2022/06/15 09:58:54;;;;;;;2.60;2.20;;;;;;;;;;5056367;28;24489;-47
2022/06/15 10:01:20;;;;;;;2.70;2.50;;;;;;;;;;5063146;28;24409;-46
2022/06/15 10:03:48;;;;;;;3.45;2.60;;;;;;;;;;5063749;28;24464;-46
2022/06/15 10:06:22;;;;;;;2.80;2.60;;;;;;;;;;5059943;28;24405;-46
2022/06/15 10:08:48;;;;;;;3.47;2.88;;;;;;;;;;5057448;28;24379;-51
2022/06/15 10:11:18;;;;;;;3.03;2.73;;;;;;;;;;5058356;28;24477;-46
2022/06/15 10:13:43;;;;;;;2.50;2.30;;;;;;;;;;5059662;28;24600;-45
2022/06/15 10:16:14;;;;;;;2.80;2.60;;;;;;;;;;5061234;28;24415;-46
2022/06/15 10:18:47;;;;;;;3.10;2.50;;;;;;;;;;5063266;28;24398;-48
2022/06/15 10:21:12;;;;;;;2.30;2.20;;;;;;;;;;5054572;28;24453;-46
2022/06/15 10:23:58;;;;;;;2.80;2.60;;;;;;;;;;5058753;28;24458;-46
2022/06/15 10:26:28;;;;;;;2.13;2.00;;;;;;;;;;5062698;28;24583;-46
2022/06/15 10:28:54;;;;;;;3.70;2.70;;;;;;;;;;5063037;28;24398;-46
2022/06/15 10:31:25;;;;;;;2.70;2.40;;;;;;;;;;5060366;28;24460;-45
2022/06/15 10:33:51;;;;;;;2.50;2.30;;;;;;;;;;5058216;28;24406;-45
2022/06/15 10:36:21;;;;;;;2.70;2.50;;;;;;;;;;5063776;28;24444;-46
2022/06/15 10:38:49;;;;;;;3.10;2.80;;;;;;;;;;5067243;28;24932;-46
2022/06/15 10:43:58;;;;;;;2.90;2.70;;;;;;;;;;5064314;28;24520;-46
2022/06/15 10:46:23;;;;;;;2.85;2.53;;;;;;;;;;5062047;28;24387;-46
2022/06/15 10:48:57;;;;;;;2.80;2.60;;;;;;;;;;5066072;28;24379;-46
2022/06/15 10:51:33;;;;;;;2.70;2.50;;;;;;;;;;5061863;28;25109;-47
2022/06/15 10:54:17;;;;;;;3.10;2.55;;;;;;;;;;5065822;28;24461;-46
2022/06/15 11:02:23;;;;;;;3.35;2.60;;;;;;;;;;5066921;28;24742;-46
2022/06/15 11:04:49;;;;;;;2.50;2.30;;;;;;;;;;5066289;28;24421;-46
2022/06/15 11:07:23;;;;;;;2.40;2.20;;;;;;;;;;5064862;28;24463;-46
2022/06/15 11:09:54;;;;;;;2.97;2.50;;;;;;;;;;5061186;28;24440;-49
2022/06/15 11:12:26;;;;;;;2.83;2.63;;;;;;;;;;5064618;28;24410;-45
2022/06/15 11:15:03;;;;;;;2.80;2.60;;;;;;;;;;5064703;28;24522;-45
2022/06/15 11:20:33;;;;;;;2.80;2.60;;;;;;;;;;5060807;28;24390;-46
2022/06/15 11:23:02;;;;;;;3.00;2.80;;;;;;;;;;5064560;28;24510;-45
2022/06/15 11:25:51;;;;;;;3.28;2.40;;;;;;;;;;5065345;28;24777;-47
2022/06/15 11:28:24;;;;;;;2.70;2.50;;;;;;;;;;5058740;28;24445;-47
2022/06/15 11:30:52;;;;;;;2.88;2.50;;;;;;;;;;5062826;28;24407;-46
2022/06/15 11:33:23;;;;;;;2.80;2.60;;;;;;;;;;5062021;28;24414;-47
2022/06/15 11:35:58;;;;;;;2.80;2.60;;;;;;;;;;5062961;28;24423;-45
2022/06/15 11:38:32;;;;;;;2.60;2.40;;;;;;;;;;5064281;28;24402;-46
2022/06/15 11:41:02;;;;;;;2.80;2.60;;;;;;;;;;5065660;28;24394;-46
2022/06/15 11:43:30;;;;;;;3.00;2.70;;;;;;;;;;5061740;28;24567;-46
2022/06/15 11:46:15;;;;;;;2.20;2.10;;;;;;;;;;5060386;28;25026;-46
2022/06/15 11:48:51;;;;;;;2.83;2.60;;;;;;;;;;5051673;28;24446;-46
2022/06/15 11:51:16;;;;;;;3.58;2.75;;;;;;;;;;5063952;28;24399;-46
2022/06/15 11:53:47;;;;;;;2.80;2.60;;;;;;;;;;5063412;28;24457;-45
2022/06/15 11:56:15;;;;;;;3.17;2.90;;;;;;;;;;5059397;28;24423;-46
2022/06/15 11:58:45;;;;;;;3.20;3.00;;;;;;;;;;5062249;28;24460;-48
2022/06/15 12:01:11;;;;;;;2.92;2.72;;;;;;;;;;5062167;28;24808;-48
2022/06/15 12:04:01;;;;;;;4.13;3.10;;;;;;;;;;5064987;28;24414;-47
2022/06/15 12:06:44;;;;;;;3.28;2.97;;;;;;;;;;5062659;28;25888;-47
2022/06/15 12:09:29;;;;;;;2.90;2.70;;;;;;;;;;5062310;28;24403;-45
2022/06/15 12:14:59;;;;;;;2.70;2.38;;;;;;;;;;5041971;28;24425;-46
2022/06/15 12:17:32;;;;;;;3.05;2.70;;;;;;;;;;5052432;28;24479;-46
2022/06/15 12:19:57;;;;;;;2.90;2.70;;;;;;;;;;5064060;28;24844;-47
2022/06/15 12:22:33;;;;;;;2.80;2.60;;;;;;;;;;5059860;28;24519;-47
2022/06/15 12:25:03;;;;;;;3.22;2.92;;;;;;;;;;5061866;28;24390;-46
2022/06/15 12:27:29;;;;;;;2.97;2.78;;;;;;;;;;5062886;28;24422;-46
2022/06/15 12:29:57;;;;;;;3.00;2.80;;;;;;;;;;5065330;28;24387;-47
2022/06/15 12:34:58;;;;;;;2.60;2.40;;;;;;;;;;5065407;28;24465;-46
2022/06/15 12:37:26;;;;;;;3.07;2.87;;;;;;;;;;5064644;28;24472;-46
2022/06/15 12:39:54;;;;;;;2.77;2.57;;;;;;;;;;5064224;28;24409;-46
2022/06/15 12:42:22;;;;;;;3.05;2.80;;;;;;;;;;5062927;28;24455;-47
2022/06/15 12:44:53;;;;;;;3.00;2.80;;;;;;;;;;5061162;28;24427;-47
2022/06/15 12:47:20;;;;;;;3.38;2.88;;;;;;;;;;5074717;28;25079;-47
2022/06/15 12:50:06;;;;;;;3.00;2.80;;;;;;;;;;5072149;28;24697;-46
2022/06/15 12:52:41;;;;;;;2.80;2.60;;;;;;;;;;5074466;28;24422;-46
2022/06/15 12:55:14;;;;;;;3.10;2.90;;;;;;;;;;5063231;28;24453;-46
2022/06/15 12:57:45;;;;;;;2.97;2.50;;;;;;;;;;5060168;28;24410;-46
2022/06/15 13:00:23;;;;;;;3.00;2.70;;;;;;;;;;5064091;28;24435;-46
2022/06/15 13:02:57;;;;;;;3.20;2.77;;;;;;;;;;5068273;28;24794;-47
2022/06/15 13:05:25;;;;;;;3.20;2.90;;;;;;;;;;5064637;28;24418;-47
2022/06/15 13:08:09;;;;;;;2.83;2.67;;;;;;;;;;5065085;28;24419;-46
2022/06/15 13:10:35;;;;;;;3.80;3.10;;;;;;;;;;5061571;28;24419;-46
2022/06/15 13:13:01;;;;;;;4.00;3.10;;;;;;;;;;5061156;28;24438;-47
2022/06/15 13:15:50;;;;;;;2.63;2.42;;;;;;;;;;5043693;28;24431;-48
2022/06/15 13:18:15;;;;;;;5.50;2.63;;;;;;;;;;5046402;28;24435;-46
2022/06/15 13:20:46;;;;;;;2.97;2.77;;;;;;;;;;5063701;28;24772;-46
2022/06/15 13:23:23;;;;;;;2.80;2.60;;;;;;;;;;5059259;28;24427;-46
2022/06/15 13:25:53;;;;;;;2.80;2.60;;;;;;;;;;5061360;28;24430;-47
2022/06/15 13:28:19;;;;;;;2.70;2.50;;;;;;;;;;5042421;28;24384;-47
2022/06/15 13:30:48;;;;;;;2.92;2.67;;;;;;;;;;5074913;28;25019;-47
2022/06/15 13:33:13;;;;;;;2.80;2.60;;;;;;;;;;5060147;28;24436;-47
2022/06/15 13:35:42;;;;;;;3.00;2.70;;;;;;;;;;5057835;28;25554;-46
2022/06/15 13:38:27;;;;;;;3.30;3.00;;;;;;;;;;5062453;28;24460;-46
2022/06/15 13:40:55;;;;;;;2.92;2.72;;;;;;;;;;5063783;28;24515;-46
2022/06/15 13:43:21;;;;;;;3.00;2.80;;;;;;;;;;5061801;28;24521;-45
2022/06/15 13:45:47;;;;;;;3.00;2.80;;;;;;;;;;5063095;28;24558;-47
2022/06/15 13:48:13;;;;;;;2.90;2.70;;;;;;;;;;5061852;28;24467;-47
2022/06/15 13:50:47;;;;;;;2.78;2.58;;;;;;;;;;5059858;28;24927;-46
2022/06/15 13:53:34;;;;;;;2.90;2.70;;;;;;;;;;5058153;28;24430;-46
2022/06/15 13:56:03;;;;;;;2.83;2.63;;;;;;;;;;5062763;28;25050;-46
2022/06/15 13:58:50;;;;;;;2.90;2.70;;;;;;;;;;5061625;28;25172;-46
2022/06/15 14:01:34;;;;;;;2.60;2.40;;;;;;;;;;5056830;28;24438;-46
2022/06/15 14:04:10;;;;;;;2.58;2.38;;;;;;;;;;5043814;28;24437;-47
2022/06/15 14:06:54;;;;;;;3.53;2.60;;;;;;;;;;5054060;28;24449;-47
2022/06/15 14:09:24;;;;;;;3.30;2.60;;;;;;;;;;5046338;28;24773;-47
2022/06/15 14:12:00;;;;;;;2.90;2.70;;;;;;;;;;5062131;28;24403;-45
2022/06/15 14:14:43;;;;;;;3.17;2.42;;;;;;;;;;5057389;28;24967;-46
2022/06/15 14:17:26;;;;;;;2.90;2.38;;;;;;;;;;5057352;28;24574;-46
2022/06/15 14:20:15;;;;;;;2.90;2.70;;;;;;;;;;5065827;28;24415;-46
2022/06/15 14:22:48;;;;;;;3.03;2.80;;;;;;;;;;5051974;28;24415;-46
2022/06/15 14:25:16;;;;;;;3.90;2.70;;;;;;;;;;5063399;28;25259;-47
2022/06/15 14:27:41;;;;;;;2.20;2.10;;;;;;;;;;5052746;28;25349;-47
2022/06/15 14:30:19;;;;;;;2.60;2.50;;;;;;;;;;5043907;28;24398;-47
2022/06/15 14:32:44;;;;;;;2.95;2.75;;;;;;;;;;5043261;28;24399;-47
2022/06/15 14:35:12;;;;;;;2.70;2.50;;;;;;;;;;5059925;28;24893;-46
2022/06/15 14:37:38;;;;;;;2.70;2.50;;;;;;;;;;5056696;28;24450;-46
2022/06/15 14:40:03;;;;;;;2.97;2.67;;;;;;;;;;5062294;28;24922;-46
2022/06/15 14:42:54;;;;;;;3.17;2.97;;;;;;;;;;5064581;28;24500;-45
2022/06/15 14:45:16;;;;;;;2.60;2.50;;;;;;;;;;5063003;28;24451;-45
2022/06/15 14:47:49;;;;;;;2.80;2.60;;;;;;;;;;5061567;28;24415;-47
2022/06/15 14:50:15;;;;;;;3.00;2.80;;;;;;;;;;5062076;28;24446;-46
2022/06/15 14:52:40;;;;;;;2.75;2.53;;;;;;;;;;5063102;28;24940;-46
2022/06/15 14:55:10;;;;;;;2.60;2.40;;;;;;;;;;5060998;28;24437;-46
2022/06/15 14:57:37;;;;;;;3.15;2.85;;;;;;;;;;5062335;28;24410;-46
2022/06/15 15:00:23;;;;;;;2.80;2.60;;;;;;;;;;5058748;28;24473;-46
2022/06/15 15:02:51;;;;;;;3.10;2.40;;;;;;;;;;5052717;28;24968;-46
2022/06/15 15:05:18;;;;;;;2.60;2.40;;;;;;;;;;5050340;28;24419;-46
2022/06/15 15:10:33;;;;;;;2.80;2.40;;;;;;;;;;5057316;28;24434;-46
2022/06/15 15:13:13;;;;;;;2.40;2.30;;;;;;;;;;5056270;28;24545;-47
2022/06/15 15:15:42;;;;;;;2.83;2.63;;;;;;;;;;5060739;28;24430;-45